Aviation Digital Data Service (ADDS)

Output produced by METARs form (0153 UTC 26 June 2017)
found at http://aviationweather.gov/adds/metars/
 
KBFD 252339Z 2600/2624 26006KT P6SM SCT040 
     FM260800 26003KT 3SM BR SCT005 
     FM261200 26009KT P6SM BKN040 
     FM261400 27010KT P6SM VCSH BKN035 
     FM261900 27011KT P6SM -SHRA OVC035